Česky Dansk Deutsch English Español Suomi Français Magyar Italiano Nederlands norsk Polski Português svenska Türkçe

 

Het Weer

Alencon (Frankrijk)

15:00, 30 januari 2014 (GMT)

NWNNE
WE
SWSSE
Home            
Alencon Le Mans Toussus Le Noble Caen Evreux Chartres Chateaudun Angers La Heve Tours Rouen Orleans Rennes Villacoublay Vittefleur / St. Vale Dinard Paris Met Center Paris-Orly Romorantin Cherbourg / Maupertus Paris / Le Bourget Beauvais Paris-Aeroport Charles De Gaulle

Om een weerknop op uw website of weblog te plaatsen, copieer onderstaande code en plak die in uw pagina. In het eerste vakje staat HTML-code, in het tweede vakje UBB-code.


Add to Google

Details

Wind speed:2 bf, 4 kn, 2.1 m/s, 4.6 miles/h, 7.4 km/h
Wind direction:S, 170°
Widzialność pozioma: 5000 m, 5.0 km, 16404 ft, 3.1 miles
Clouds:Zachmurzenie całkowite at 700 ft, 213 m
Temperatura:6°C, 43°F
Punkt rosy:4°C, 39°F
Ciśnienie QHN:1002 hPa, 751.6 mmHg, 29.59 inHg, 0.989 atm
Wilgotność względna:87.0 %
METAR:LFOF 301500Z 17004KT 5000 OVC007 06/04 Q1002

Snelkoppelingen

Actuele weersinformatie van de hele wereld. Voeg locaties toe met het plus (+) symbool. Deze snelkoppelingen kunnen worden toegevoegd aan Google.

Lid van de Technetium groep

website free tracking
StatCounter NetStat W3C Validator

28-09-2022 08:15:10
astro.technetium.be money.technetium.be phote.technetium.be tafeltennistafel.technetium.be www.ligfiets.net